sensor_id;sensor_type;location;lat;lon;timestamp;pressure;altitude;pressure_sealevel;temperature;humidity
34482;BME280;20720;48.886;9.388;2023-08-17T00:02:13;98394.53;;;24.59;100.00
34482;BME280;20720;48.886;9.388;2023-08-17T00:04:40;98400.53;;;24.75;100.00
34482;BME280;20720;48.886;9.388;2023-08-17T00:07:05;98409.72;;;24.69;100.00
34482;BME280;20720;48.886;9.388;2023-08-17T00:09:31;98411.84;;;24.72;100.00
34482;BME280;20720;48.886;9.388;2023-08-17T00:11:57;98399.38;;;24.10;100.00
34482;BME280;20720;48.886;9.388;2023-08-17T00:14:22;98397.84;;;24.51;100.00
34482;BME280;20720;48.886;9.388;2023-08-17T00:16:49;98405.78;;;24.61;100.00
34482;BME280;20720;48.886;9.388;2023-08-17T00:19:15;98408.03;;;24.54;100.00
34482;BME280;20720;48.886;9.388;2023-08-17T00:21:40;98378.13;;;24.13;100.00
34482;BME280;20720;48.886;9.388;2023-08-17T00:24:05;98386.00;;;24.52;100.00
34482;BME280;20720;48.886;9.388;2023-08-17T00:26:31;98385.09;;;24.38;100.00
34482;BME280;20720;48.886;9.388;2023-08-17T00:28:56;98381.00;;;24.22;100.00
34482;BME280;20720;48.886;9.388;2023-08-17T00:31:21;98395.31;;;24.36;100.00
34482;BME280;20720;48.886;9.388;2023-08-17T00:33:46;98387.22;;;24.41;100.00
34482;BME280;20720;48.886;9.388;2023-08-17T00:36:12;98376.59;;;24.31;100.00
34482;BME280;20720;48.886;9.388;2023-08-17T00:38:37;98381.91;;;24.36;100.00
34482;BME280;20720;48.886;9.388;2023-08-17T00:41:02;98378.34;;;24.17;100.00
34482;BME280;20720;48.886;9.388;2023-08-17T00:43:27;98383.09;;;23.96;100.00
34482;BME280;20720;48.886;9.388;2023-08-17T00:45:53;98392.69;;;24.07;100.00
34482;BME280;20720;48.886;9.388;2023-08-17T00:48:18;98386.47;;;24.12;100.00
34482;BME280;20720;48.886;9.388;2023-08-17T00:50:45;98378.09;;;23.90;100.00
34482;BME280;20720;48.886;9.388;2023-08-17T00:53:12;98377.13;;;23.76;100.00
34482;BME280;20720;48.886;9.388;2023-08-17T00:55:39;98376.84;;;23.49;100.00
34482;BME280;20720;48.886;9.388;2023-08-17T00:58:04;98388.09;;;23.79;100.00
34482;BME280;20720;48.886;9.388;2023-08-17T01:00:31;98379.34;;;23.69;100.00
34482;BME280;20720;48.886;9.388;2023-08-17T01:02:57;98385.41;;;23.79;100.00
34482;BME280;20720;48.886;9.388;2023-08-17T01:05:23;98383.03;;;23.78;100.00
34482;BME280;20720;48.886;9.388;2023-08-17T01:07:48;98383.06;;;23.73;100.00
34482;BME280;20720;48.886;9.388;2023-08-17T01:10:14;98384.44;;;23.70;100.00
34482;BME280;20720;48.886;9.388;2023-08-17T01:13:00;98387.13;;;23.99;100.00
34482;BME280;20720;48.886;9.388;2023-08-17T01:15:35;98384.00;;;24.15;100.00
34482;BME280;20720;48.886;9.388;2023-08-17T01:18:11;98381.75;;;23.99;100.00
34482;BME280;20720;48.886;9.388;2023-08-17T01:20:41;98363.78;;;23.71;100.00
34482;BME280;20720;48.886;9.388;2023-08-17T01:23:07;98380.94;;;23.98;100.00
34482;BME280;20720;48.886;9.388;2023-08-17T01:25:33;98377.16;;;24.04;100.00
34482;BME280;20720;48.886;9.388;2023-08-17T01:28:02;98375.56;;;23.98;100.00
34482;BME280;20720;48.886;9.388;2023-08-17T01:30:30;98367.91;;;23.87;100.00
34482;BME280;20720;48.886;9.388;2023-08-17T01:33:06;98367.44;;;23.80;100.00
34482;BME280;20720;48.886;9.388;2023-08-17T01:35:34;98373.25;;;23.87;100.00
34482;BME280;20720;48.886;9.388;2023-08-17T01:38:05;98342.16;;;22.80;100.00
34482;BME280;20720;48.886;9.388;2023-08-17T01:40:33;98352.34;;;23.21;100.00
34482;BME280;20720;48.886;9.388;2023-08-17T01:43:00;98360.22;;;23.47;100.00
34482;BME280;20720;48.886;9.388;2023-08-17T01:45:25;98361.00;;;23.52;100.00
34482;BME280;20720;48.886;9.388;2023-08-17T01:47:51;98359.09;;;23.53;100.00
34482;BME280;20720;48.886;9.388;2023-08-17T01:50:16;98341.97;;;23.10;100.00
34482;BME280;20720;48.886;9.388;2023-08-17T01:52:41;98327.25;;;23.07;100.00
34482;BME280;20720;48.886;9.388;2023-08-17T01:55:07;98338.28;;;23.40;100.00
34482;BME280;20720;48.886;9.388;2023-08-17T01:57:33;98347.75;;;23.61;100.00
34482;BME280;20720;48.886;9.388;2023-08-17T02:00:00;98344.81;;;23.23;100.00
34482;BME280;20720;48.886;9.388;2023-08-17T02:02:25;98347.28;;;23.54;100.00
34482;BME280;20720;48.886;9.388;2023-08-17T02:04:51;98338.56;;;23.38;100.00
34482;BME280;20720;48.886;9.388;2023-08-17T02:07:16;98353.13;;;23.61;100.00
34482;BME280;20720;48.886;9.388;2023-08-17T02:09:41;98355.81;;;23.61;100.00
34482;BME280;20720;48.886;9.388;2023-08-17T02:12:06;98340.66;;;23.46;100.00
34482;BME280;20720;48.886;9.388;2023-08-17T02:14:33;98344.38;;;22.73;100.00
34482;BME280;20720;48.886;9.388;2023-08-17T02:16:58;98318.16;;;22.65;100.00
34482;BME280;20720;48.886;9.388;2023-08-17T02:19:24;98327.16;;;23.17;100.00
34482;BME280;20720;48.886;9.388;2023-08-17T02:21:49;98348.59;;;23.85;100.00
34482;BME280;20720;48.886;9.388;2023-08-17T02:24:14;98352.75;;;23.72;100.00
34482;BME280;20720;48.886;9.388;2023-08-17T02:26:39;98351.25;;;23.90;100.00
34482;BME280;20720;48.886;9.388;2023-08-17T02:29:05;98350.53;;;24.08;100.00
34482;BME280;20720;48.886;9.388;2023-08-17T02:31:30;98348.28;;;24.15;100.00
34482;BME280;20720;48.886;9.388;2023-08-17T02:33:55;98354.19;;;24.17;100.00
34482;BME280;20720;48.886;9.388;2023-08-17T02:36:26;98353.56;;;24.25;100.00
34482;BME280;20720;48.886;9.388;2023-08-17T02:38:51;98351.56;;;24.12;100.00
34482;BME280;20720;48.886;9.388;2023-08-17T02:41:17;98341.47;;;23.47;100.00
34482;BME280;20720;48.886;9.388;2023-08-17T02:43:42;98327.47;;;23.50;100.00
34482;BME280;20720;48.886;9.388;2023-08-17T02:46:07;98340.59;;;23.80;100.00
34482;BME280;20720;48.886;9.388;2023-08-17T02:48:33;98321.81;;;23.51;100.00
34482;BME280;20720;48.886;9.388;2023-08-17T02:50:58;98331.19;;;24.11;100.00
34482;BME280;20720;48.886;9.388;2023-08-17T02:53:23;98339.09;;;24.21;100.00
34482;BME280;20720;48.886;9.388;2023-08-17T02:55:49;98312.84;;;22.98;100.00
34482;BME280;20720;48.886;9.388;2023-08-17T02:58:14;98299.38;;;23.03;100.00
34482;BME280;20720;48.886;9.388;2023-08-17T03:00:39;98327.69;;;23.82;100.00
34482;BME280;20720;48.886;9.388;2023-08-17T03:03:04;98328.53;;;24.06;100.00
34482;BME280;20720;48.886;9.388;2023-08-17T03:05:30;98329.00;;;24.13;100.00
34482;BME280;20720;48.886;9.388;2023-08-17T03:07:55;98320.88;;;24.18;100.00
34482;BME280;20720;48.886;9.388;2023-08-17T03:10:20;98323.13;;;24.11;100.00
34482;BME280;20720;48.886;9.388;2023-08-17T03:12:45;98325.16;;;24.19;100.00
34482;BME280;20720;48.886;9.388;2023-08-17T03:15:11;98324.53;;;24.27;100.00
34482;BME280;20720;48.886;9.388;2023-08-17T03:17:36;98312.41;;;24.06;100.00
34482;BME280;20720;48.886;9.388;2023-08-17T03:20:01;98309.63;;;24.16;100.00
34482;BME280;20720;48.886;9.388;2023-08-17T03:22:26;98318.72;;;24.20;100.00
34482;BME280;20720;48.886;9.388;2023-08-17T03:24:54;98304.00;;;23.60;100.00
34482;BME280;20720;48.886;9.388;2023-08-17T03:27:20;98295.06;;;23.70;100.00
34482;BME280;20720;48.886;9.388;2023-08-17T03:29:45;98297.13;;;23.78;100.00
34482;BME280;20720;48.886;9.388;2023-08-17T03:32:10;98305.91;;;24.12;100.00
34482;BME280;20720;48.886;9.388;2023-08-17T03:34:35;98283.19;;;23.18;100.00
34482;BME280;20720;48.886;9.388;2023-08-17T03:37:01;98295.78;;;24.04;100.00
34482;BME280;20720;48.886;9.388;2023-08-17T03:39:26;98302.56;;;24.01;100.00
34482;BME280;20720;48.886;9.388;2023-08-17T03:41:51;98307.97;;;24.20;100.00
34482;BME280;20720;48.886;9.388;2023-08-17T03:44:16;98307.56;;;24.32;100.00
34482;BME280;20720;48.886;9.388;2023-08-17T03:46:42;98311.41;;;24.44;100.00
34482;BME280;20720;48.886;9.388;2023-08-17T03:49:07;98313.59;;;24.42;100.00
34482;BME280;20720;48.886;9.388;2023-08-17T03:51:32;98316.72;;;24.49;100.00
34482;BME280;20720;48.886;9.388;2023-08-17T03:53:57;98323.19;;;24.48;100.00
34482;BME280;20720;48.886;9.388;2023-08-17T03:56:23;98320.31;;;24.40;100.00
34482;BME280;20720;48.886;9.388;2023-08-17T03:58:50;98334.41;;;24.32;100.00
34482;BME280;20720;48.886;9.388;2023-08-17T04:01:15;98327.63;;;24.39;100.00
34482;BME280;20720;48.886;9.388;2023-08-17T04:03:40;98338.91;;;24.36;100.00
34482;BME280;20720;48.886;9.388;2023-08-17T04:06:06;98341.09;;;24.34;100.00
34482;BME280;20720;48.886;9.388;2023-08-17T04:08:35;98336.88;;;23.76;100.00
34482;BME280;20720;48.886;9.388;2023-08-17T04:11:00;98331.47;;;23.81;100.00
34482;BME280;20720;48.886;9.388;2023-08-17T04:13:25;98317.63;;;23.69;100.00
34482;BME280;20720;48.886;9.388;2023-08-17T04:15:52;98323.84;;;23.64;100.00
34482;BME280;20720;48.886;9.388;2023-08-17T04:18:17;98332.44;;;24.18;100.00
34482;BME280;20720;48.886;9.388;2023-08-17T04:20:43;98340.31;;;24.34;100.00
34482;BME280;20720;48.886;9.388;2023-08-17T04:23:08;98344.78;;;24.38;100.00
34482;BME280;20720;48.886;9.388;2023-08-17T04:25:33;98349.66;;;24.36;100.00
34482;BME280;20720;48.886;9.388;2023-08-17T04:27:58;98352.94;;;24.33;100.00
34482;BME280;20720;48.886;9.388;2023-08-17T04:30:24;98353.97;;;24.37;100.00
34482;BME280;20720;48.886;9.388;2023-08-17T04:32:49;98351.31;;;24.32;100.00
34482;BME280;20720;48.886;9.388;2023-08-17T04:35:17;98355.50;;;24.43;100.00
34482;BME280;20720;48.886;9.388;2023-08-17T04:37:43;98362.91;;;24.51;100.00
34482;BME280;20720;48.886;9.388;2023-08-17T04:40:08;98353.78;;;24.28;100.00
34482;BME280;20720;48.886;9.388;2023-08-17T04:42:35;98349.50;;;23.47;100.00
34482;BME280;20720;48.886;9.388;2023-08-17T04:45:00;98330.53;;;23.67;100.00
34482;BME280;20720;48.886;9.388;2023-08-17T04:47:25;98347.03;;;24.07;100.00
34482;BME280;20720;48.886;9.388;2023-08-17T04:49:51;98358.63;;;24.50;100.00
34482;BME280;20720;48.886;9.388;2023-08-17T04:52:16;98344.41;;;23.74;100.00
34482;BME280;20720;48.886;9.388;2023-08-17T04:54:41;98354.19;;;24.17;100.00
34482;BME280;20720;48.886;9.388;2023-08-17T04:57:07;98365.22;;;24.39;100.00
34482;BME280;20720;48.886;9.388;2023-08-17T04:59:32;98372.75;;;24.37;100.00
34482;BME280;20720;48.886;9.388;2023-08-17T05:01:57;98358.94;;;23.96;100.00
34482;BME280;20720;48.886;9.388;2023-08-17T05:04:22;98365.66;;;24.46;100.00
34482;BME280;20720;48.886;9.388;2023-08-17T05:06:48;98365.22;;;24.39;100.00
34482;BME280;20720;48.886;9.388;2023-08-17T05:09:13;98374.91;;;24.82;100.00
34482;BME280;20720;48.886;9.388;2023-08-17T05:11:38;98372.94;;;24.64;100.00
34482;BME280;20720;48.886;9.388;2023-08-17T05:14:03;98371.09;;;24.83;100.00
34482;BME280;20720;48.886;9.388;2023-08-17T05:16:29;98370.53;;;24.86;100.00
34482;BME280;20720;48.886;9.388;2023-08-17T05:18:54;98359.56;;;24.83;100.00
34482;BME280;20720;48.886;9.388;2023-08-17T05:21:19;98369.97;;;24.89;100.00
34482;BME280;20720;48.886;9.388;2023-08-17T05:23:44;98371.28;;;24.73;100.00
34482;BME280;20720;48.886;9.388;2023-08-17T05:26:10;98346.81;;;24.04;100.00
34482;BME280;20720;48.886;9.388;2023-08-17T05:28:35;98356.72;;;24.74;100.00
34482;BME280;20720;48.886;9.388;2023-08-17T05:31:05;98367.25;;;25.08;100.00
34482;BME280;20720;48.886;9.388;2023-08-17T05:33:31;98372.59;;;25.13;100.00
34482;BME280;20720;48.886;9.388;2023-08-17T05:35:56;98363.94;;;24.79;100.00
34482;BME280;20720;48.886;9.388;2023-08-17T05:38:22;98367.69;;;24.96;100.00
34482;BME280;20720;48.886;9.388;2023-08-17T05:40:47;98374.59;;;25.02;100.00
34482;BME280;20720;48.886;9.388;2023-08-17T05:43:12;98370.75;;;24.90;100.00
34482;BME280;20720;48.886;9.388;2023-08-17T05:45:37;98371.78;;;24.94;100.00
34482;BME280;20720;48.886;9.388;2023-08-17T05:48:03;98366.69;;;23.98;100.00
34482;BME280;20720;48.886;9.388;2023-08-17T05:50:29;98335.81;;;23.77;100.00
34482;BME280;20720;48.886;9.388;2023-08-17T05:52:54;98313.81;;;23.75;100.00
34482;BME280;20720;48.886;9.388;2023-08-17T05:55:20;98320.53;;;23.49;100.00
34482;BME280;20720;48.886;9.388;2023-08-17T05:57:45;98324.19;;;24.34;100.00
34482;BME280;20720;48.886;9.388;2023-08-17T06:00:11;98372.28;;;25.14;100.00
34482;BME280;20720;48.886;9.388;2023-08-17T06:02:37;98387.78;;;25.23;100.00
34482;BME280;20720;48.886;9.388;2023-08-17T06:05:03;98389.78;;;25.31;100.00
34482;BME280;20720;48.886;9.388;2023-08-17T06:07:28;98381.09;;;25.71;100.00
34482;BME280;20720;48.886;9.388;2023-08-17T06:09:53;98388.75;;;25.64;100.00
34482;BME280;20720;48.886;9.388;2023-08-17T06:12:19;98392.72;;;25.85;100.00
34482;BME280;20720;48.886;9.388;2023-08-17T06:14:44;98392.41;;;26.32;100.00
34482;BME280;20720;48.886;9.388;2023-08-17T06:17:09;98376.66;;;24.68;100.00
34482;BME280;20720;48.886;9.388;2023-08-17T06:19:34;98393.28;;;25.50;100.00
34482;BME280;20720;48.886;9.388;2023-08-17T06:22:00;98376.78;;;24.82;100.00
34482;BME280;20720;48.886;9.388;2023-08-17T06:24:25;98392.09;;;25.88;100.00
34482;BME280;20720;48.886;9.388;2023-08-17T06:26:50;98404.53;;;26.16;100.00
34482;BME280;20720;48.886;9.388;2023-08-17T06:29:15;98411.13;;;26.10;100.00
34482;BME280;20720;48.886;9.388;2023-08-17T06:31:40;98406.75;;;26.41;100.00
34482;BME280;20720;48.886;9.388;2023-08-17T06:34:06;98411.59;;;25.48;100.00
34482;BME280;20720;48.886;9.388;2023-08-17T06:36:31;98417.72;;;26.18;100.00
34482;BME280;20720;48.886;9.388;2023-08-17T06:39:00;98412.69;;;26.70;100.00
34482;BME280;20720;48.886;9.388;2023-08-17T06:41:25;98389.94;;;24.36;100.00
34482;BME280;20720;48.886;9.388;2023-08-17T06:43:51;98407.19;;;25.89;100.00
34482;BME280;20720;48.886;9.388;2023-08-17T06:46:16;98413.56;;;26.79;100.00
34482;BME280;20720;48.886;9.388;2023-08-17T06:48:43;98414.25;;;26.17;100.00
34482;BME280;20720;48.886;9.388;2023-08-17T06:51:08;98402.97;;;25.51;100.00
34482;BME280;20720;48.886;9.388;2023-08-17T06:53:33;98409.53;;;26.09;100.00
34482;BME280;20720;48.886;9.388;2023-08-17T06:55:59;98408.44;;;27.41;100.00
34482;BME280;20720;48.886;9.388;2023-08-17T06:58:24;98422.44;;;27.65;100.00
34482;BME280;20720;48.886;9.388;2023-08-17T07:00:50;98427.06;;;28.17;100.00
34482;BME280;20720;48.886;9.388;2023-08-17T07:03:15;98435.94;;;27.65;100.00
34482;BME280;20720;48.886;9.388;2023-08-17T07:05:41;98415.13;;;26.13;100.00
34482;BME280;20720;48.886;9.388;2023-08-17T07:08:07;98424.72;;;26.59;100.00
34482;BME280;20720;48.886;9.388;2023-08-17T07:10:32;98429.16;;;27.54;100.00
34482;BME280;20720;48.886;9.388;2023-08-17T07:12:57;98434.53;;;27.89;100.00
34482;BME280;20720;48.886;9.388;2023-08-17T07:15:23;98436.72;;;28.40;100.00
34482;BME280;20720;48.886;9.388;2023-08-17T07:17:48;98439.88;;;28.73;100.00
34482;BME280;20720;48.886;9.388;2023-08-17T07:20:13;98444.34;;;27.28;100.00
34482;BME280;20720;48.886;9.388;2023-08-17T07:22:39;98443.69;;;27.80;100.00
34482;BME280;20720;48.886;9.388;2023-08-17T07:25:04;98452.75;;;28.59;100.00
34482;BME280;20720;48.886;9.388;2023-08-17T07:27:29;98454.53;;;28.72;100.00
34482;BME280;20720;48.886;9.388;2023-08-17T07:29:55;98459.06;;;26.67;100.00
34482;BME280;20720;48.886;9.388;2023-08-17T07:32:20;98457.91;;;27.72;100.00
34482;BME280;20720;48.886;9.388;2023-08-17T07:34:46;98449.69;;;27.06;100.00
34482;BME280;20720;48.886;9.388;2023-08-17T07:37:12;98451.41;;;27.51;100.00
34482;BME280;20720;48.886;9.388;2023-08-17T07:39:37;98429.88;;;25.51;100.00
34482;BME280;20720;48.886;9.388;2023-08-17T07:42:03;98429.34;;;26.59;100.00
34482;BME280;20720;48.886;9.388;2023-08-17T07:44:29;98445.94;;;27.64;100.00
34482;BME280;20720;48.886;9.388;2023-08-17T07:46:56;98425.22;;;25.38;100.00
34482;BME280;20720;48.886;9.388;2023-08-17T07:49:22;98433.38;;;27.11;100.00
34482;BME280;20720;48.886;9.388;2023-08-17T07:51:48;98431.81;;;28.51;100.00
34482;BME280;20720;48.886;9.388;2023-08-17T07:54:13;98438.53;;;26.71;100.00
34482;BME280;20720;48.886;9.388;2023-08-17T07:56:38;98436.56;;;28.06;100.00
34482;BME280;20720;48.886;9.388;2023-08-17T07:59:04;98443.69;;;29.37;100.00
34482;BME280;20720;48.886;9.388;2023-08-17T08:01:29;98441.16;;;29.75;100.00
34482;BME280;20720;48.886;9.388;2023-08-17T08:03:54;98448.16;;;29.67;99.26
34482;BME280;20720;48.886;9.388;2023-08-17T08:06:20;98458.25;;;30.38;95.63
34482;BME280;20720;48.886;9.388;2023-08-17T08:08:46;98448.69;;;27.02;100.00
34482;BME280;20720;48.886;9.388;2023-08-17T08:11:11;98446.66;;;27.21;100.00
34482;BME280;20720;48.886;9.388;2023-08-17T08:13:36;98441.09;;;27.04;100.00
34482;BME280;20720;48.886;9.388;2023-08-17T08:16:02;98447.50;;;29.87;100.00
34482;BME280;20720;48.886;9.388;2023-08-17T08:18:27;98468.03;;;32.09;85.01
34482;BME280;20720;48.886;9.388;2023-08-17T08:20:52;98473.16;;;32.80;81.40
34482;BME280;20720;48.886;9.388;2023-08-17T08:23:18;98476.75;;;33.32;77.46
34482;BME280;20720;48.886;9.388;2023-08-17T08:25:43;98480.63;;;33.07;76.34
34482;BME280;20720;48.886;9.388;2023-08-17T08:28:09;98478.41;;;33.88;72.49
34482;BME280;20720;48.886;9.388;2023-08-17T08:30:34;98493.78;;;32.93;79.56
34482;BME280;20720;48.886;9.388;2023-08-17T08:32:59;98480.63;;;34.26;73.73
34482;BME280;20720;48.886;9.388;2023-08-17T08:35:25;98480.94;;;34.68;70.29
34482;BME280;20720;48.886;9.388;2023-08-17T08:37:52;98480.16;;;34.52;70.11
34482;BME280;20720;48.886;9.388;2023-08-17T08:40:17;98474.06;;;35.05;68.70
34482;BME280;20720;48.886;9.388;2023-08-17T08:42:43;98471.31;;;34.27;71.07
34482;BME280;20720;48.886;9.388;2023-08-17T08:45:09;98464.97;;;27.81;100.00
34482;BME280;20720;48.886;9.388;2023-08-17T08:47:36;98463.19;;;31.41;92.75
34482;BME280;20720;48.886;9.388;2023-08-17T08:50:03;98466.22;;;32.70;79.44
34482;BME280;20720;48.886;9.388;2023-08-17T08:52:36;98471.47;;;32.42;81.35
34482;BME280;20720;48.886;9.388;2023-08-17T08:55:11;98475.09;;;34.38;73.79
34482;BME280;20720;48.886;9.388;2023-08-17T08:57:41;98476.25;;;34.99;69.69
34482;BME280;20720;48.886;9.388;2023-08-17T09:00:06;98476.88;;;34.77;68.94
34482;BME280;20720;48.886;9.388;2023-08-17T09:02:33;98478.31;;;33.85;70.83
34482;BME280;20720;48.886;9.388;2023-08-17T09:05:00;98469.75;;;31.61;89.36
34482;BME280;20720;48.886;9.388;2023-08-17T09:07:29;98476.13;;;31.97;82.44
34482;BME280;20720;48.886;9.388;2023-08-17T09:09:56;98472.72;;;33.02;80.28
34482;BME280;20720;48.886;9.388;2023-08-17T09:12:21;98471.03;;;33.89;73.43
34482;BME280;20720;48.886;9.388;2023-08-17T09:14:47;98472.97;;;34.94;71.61
34482;BME280;20720;48.886;9.388;2023-08-17T09:17:12;98470.88;;;35.91;67.19
34482;BME280;20720;48.886;9.388;2023-08-17T09:19:37;98467.94;;;35.27;67.99
34482;BME280;20720;48.886;9.388;2023-08-17T09:22:03;98467.91;;;34.02;70.05
34482;BME280;20720;48.886;9.388;2023-08-17T09:24:35;98473.41;;;35.27;69.38
34482;BME280;20720;48.886;9.388;2023-08-17T09:27:03;98481.31;;;36.05;64.93
34482;BME280;20720;48.886;9.388;2023-08-17T09:29:31;98483.25;;;36.05;62.73
34482;BME280;20720;48.886;9.388;2023-08-17T09:32:05;98475.94;;;33.32;74.11
34482;BME280;20720;48.886;9.388;2023-08-17T09:34:31;98475.84;;;34.82;68.97
34482;BME280;20720;48.886;9.388;2023-08-17T09:37:04;98471.41;;;36.20;65.47
34482;BME280;20720;48.886;9.388;2023-08-17T09:39:31;98473.97;;;36.09;67.21
34482;BME280;20720;48.886;9.388;2023-08-17T09:41:56;98469.50;;;32.88;74.01
34482;BME280;20720;48.886;9.388;2023-08-17T09:44:22;98471.41;;;34.31;74.20
34482;BME280;20720;48.886;9.388;2023-08-17T09:46:47;98463.22;;;36.01;67.26
34482;BME280;20720;48.886;9.388;2023-08-17T09:49:13;98460.97;;;36.70;63.10
34482;BME280;20720;48.886;9.388;2023-08-17T09:51:41;98464.81;;;37.15;62.34
34482;BME280;20720;48.886;9.388;2023-08-17T09:54:07;98443.91;;;33.53;75.20
34482;BME280;20720;48.886;9.388;2023-08-17T09:56:32;98451.72;;;31.27;86.24
34482;BME280;20720;48.886;9.388;2023-08-17T09:58:58;98445.34;;;32.50;87.41
34482;BME280;20720;48.886;9.388;2023-08-17T10:01:25;98435.16;;;33.47;79.59
34482;BME280;20720;48.886;9.388;2023-08-17T10:03:53;98444.31;;;31.98;87.39
34482;BME280;20720;48.886;9.388;2023-08-17T10:06:22;98444.78;;;33.84;79.11
34482;BME280;20720;48.886;9.388;2023-08-17T10:08:50;98449.59;;;33.36;75.57
34482;BME280;20720;48.886;9.388;2023-08-17T10:11:19;98443.16;;;36.57;67.26
34482;BME280;20720;48.886;9.388;2023-08-17T10:13:51;98441.06;;;35.86;70.11
34482;BME280;20720;48.886;9.388;2023-08-17T10:16:23;98446.38;;;36.63;66.52
34482;BME280;20720;48.886;9.388;2023-08-17T10:21:45;98444.16;;;37.50;60.45
34482;BME280;20720;48.886;9.388;2023-08-17T10:24:12;98446.22;;;36.11;66.19
34482;BME280;20720;48.886;9.388;2023-08-17T10:26:38;98442.47;;;38.09;60.52
34482;BME280;20720;48.886;9.388;2023-08-17T10:29:04;98439.16;;;31.02;93.86
34482;BME280;20720;48.886;9.388;2023-08-17T10:31:33;98434.97;;;36.16;69.48
34482;BME280;20720;48.886;9.388;2023-08-17T10:33:59;98432.22;;;34.39;75.96
34482;BME280;20720;48.886;9.388;2023-08-17T10:36:25;98430.03;;;36.70;66.08
34482;BME280;20720;48.886;9.388;2023-08-17T10:39:22;98432.91;;;37.92;62.40
34482;BME280;20720;48.886;9.388;2023-08-17T10:41:49;98434.81;;;37.29;62.04
34482;BME280;20720;48.886;9.388;2023-08-17T10:44:17;98431.84;;;35.56;67.44
34482;BME280;20720;48.886;9.388;2023-08-17T10:46:42;98429.28;;;32.36;86.92
34482;BME280;20720;48.886;9.388;2023-08-17T10:49:26;98433.94;;;36.69;66.46
34482;BME280;20720;48.886;9.388;2023-08-17T10:52:04;98435.28;;;38.74;59.83
34482;BME280;20720;48.886;9.388;2023-08-17T10:54:42;98434.94;;;39.47;56.66
34482;BME280;20720;48.886;9.388;2023-08-17T10:57:30;98435.41;;;39.67;55.21
34482;BME280;20720;48.886;9.388;2023-08-17T11:00:18;98425.53;;;38.00;58.15
34482;BME280;20720;48.886;9.388;2023-08-17T11:02:56;98434.00;;;40.26;55.41
34482;BME280;20720;48.886;9.388;2023-08-17T11:05:46;98428.94;;;40.42;53.36
34482;BME280;20720;48.886;9.388;2023-08-17T11:08:28;98418.03;;;38.84;55.64
34482;BME280;20720;48.886;9.388;2023-08-17T11:11:09;98411.88;;;38.47;56.20
34482;BME280;20720;48.886;9.388;2023-08-17T11:13:36;98417.19;;;38.73;56.05
34482;BME280;20720;48.886;9.388;2023-08-17T11:16:02;98417.31;;;39.63;54.41
34482;BME280;20720;48.886;9.388;2023-08-17T11:18:28;98418.03;;;38.33;57.32
34482;BME280;20720;48.886;9.388;2023-08-17T11:20:54;98416.22;;;38.51;57.14
34482;BME280;20720;48.886;9.388;2023-08-17T11:23:20;98414.19;;;39.64;53.81
34482;BME280;20720;48.886;9.388;2023-08-17T11:25:45;98412.34;;;40.17;51.45
34482;BME280;20720;48.886;9.388;2023-08-17T11:28:11;98410.53;;;38.74;55.02
34482;BME280;20720;48.886;9.388;2023-08-17T11:30:39;98405.28;;;39.16;52.63
34482;BME280;20720;48.886;9.388;2023-08-17T11:33:06;98402.13;;;39.07;53.68
34482;BME280;20720;48.886;9.388;2023-08-17T11:35:32;98396.78;;;38.27;55.17
34482;BME280;20720;48.886;9.388;2023-08-17T11:37:57;98392.31;;;38.12;58.34
34482;BME280;20720;48.886;9.388;2023-08-17T11:40:23;98397.72;;;39.85;53.80
34482;BME280;20720;48.886;9.388;2023-08-17T11:42:49;98390.38;;;37.42;58.40
34482;BME280;20720;48.886;9.388;2023-08-17T11:45:15;98385.19;;;39.05;55.42
34482;BME280;20720;48.886;9.388;2023-08-17T11:47:41;98388.56;;;38.74;56.83
34482;BME280;20720;48.886;9.388;2023-08-17T11:50:09;98387.56;;;40.14;53.24
34482;BME280;20720;48.886;9.388;2023-08-17T11:52:34;98389.06;;;39.87;52.45
34482;BME280;20720;48.886;9.388;2023-08-17T11:55:02;98397.81;;;40.52;51.81
34482;BME280;20720;48.886;9.388;2023-08-17T11:57:29;98396.66;;;40.46;52.10
34482;BME280;20720;48.886;9.388;2023-08-17T11:59:55;98392.16;;;39.68;54.03
34482;BME280;20720;48.886;9.388;2023-08-17T12:02:23;98390.69;;;40.97;48.63
34482;BME280;20720;48.886;9.388;2023-08-17T12:04:49;98399.34;;;40.00;52.77
34482;BME280;20720;48.886;9.388;2023-08-17T12:07:15;98410.22;;;39.55;54.06
34482;BME280;20720;48.886;9.388;2023-08-17T12:09:41;98406.72;;;38.89;55.94
34482;BME280;20720;48.886;9.388;2023-08-17T12:12:07;98408.53;;;38.24;59.40
34482;BME280;20720;48.886;9.388;2023-08-17T12:14:32;98403.81;;;38.24;58.55
34482;BME280;20720;48.886;9.388;2023-08-17T12:16:58;98406.06;;;38.12;60.22
34482;BME280;20720;48.886;9.388;2023-08-17T12:19:26;98406.38;;;38.07;58.79
34482;BME280;20720;48.886;9.388;2023-08-17T12:21:51;98413.13;;;37.46;59.84
34482;BME280;20720;48.886;9.388;2023-08-17T12:24:17;98413.97;;;37.50;61.34
34482;BME280;20720;48.886;9.388;2023-08-17T12:26:45;98418.78;;;37.01;61.77
34482;BME280;20720;48.886;9.388;2023-08-17T12:29:11;98427.41;;;36.51;65.51
34482;BME280;20720;48.886;9.388;2023-08-17T12:31:37;98424.91;;;36.42;65.83
34482;BME280;20720;48.886;9.388;2023-08-17T12:34:03;98415.91;;;36.00;68.17
34482;BME280;20720;48.886;9.388;2023-08-17T12:36:29;98405.53;;;35.14;69.84
34482;BME280;20720;48.886;9.388;2023-08-17T12:38:54;98405.91;;;35.12;70.10
34482;BME280;20720;48.886;9.388;2023-08-17T12:41:20;98401.78;;;34.87;70.82
34482;BME280;20720;48.886;9.388;2023-08-17T12:43:45;98402.91;;;35.36;69.51
34482;BME280;20720;48.886;9.388;2023-08-17T12:46:11;98395.03;;;34.81;71.07
34482;BME280;20720;48.886;9.388;2023-08-17T12:48:36;98401.75;;;34.37;73.62
34482;BME280;20720;48.886;9.388;2023-08-17T12:51:02;98393.56;;;34.52;74.08
34482;BME280;20720;48.886;9.388;2023-08-17T12:53:28;98404.84;;;34.51;72.71